createdAt,value
2022-11-18T00:01:55.927Z,72.80
2022-11-18T00:04:26.143Z,73.04
2022-11-18T00:06:56.363Z,73.08
2022-11-18T00:09:26.495Z,72.87
2022-11-18T00:12:14.770Z,72.87
2022-11-18T00:14:44.877Z,72.83
2022-11-18T00:17:14.875Z,73.20
2022-11-18T00:19:45.087Z,73.17
2022-11-18T00:22:16.846Z,72.93
2022-11-18T00:24:47.000Z,73.25
2022-11-18T00:27:17.004Z,73.16
2022-11-18T00:29:46.948Z,73.24
2022-11-18T00:32:16.861Z,73.31
2022-11-18T00:34:46.897Z,73.19
2022-11-18T00:37:18.641Z,73.31
2022-11-18T00:39:48.779Z,73.00
2022-11-18T00:42:37.250Z,72.92
2022-11-18T00:45:07.722Z,73.11
2022-11-18T00:47:37.841Z,72.96
2022-11-18T00:50:08.309Z,72.98
2022-11-18T00:52:38.893Z,73.15
2022-11-18T00:55:09.591Z,73.41
2022-11-18T00:57:39.775Z,73.04
2022-11-18T01:00:10.560Z,73.21
2022-11-18T01:02:40.792Z,73.01
2022-11-18T01:05:11.058Z,73.37
2022-11-18T01:07:41.389Z,73.31
2022-11-18T01:10:12.095Z,73.32
2022-11-18T01:13:00.650Z,73.40
2022-11-18T01:15:30.942Z,73.08
2022-11-18T01:18:01.209Z,73.30
2022-11-18T01:20:31.495Z,73.16
2022-11-18T01:23:01.503Z,73.48
2022-11-18T01:25:32.612Z,73.29
2022-11-18T01:28:02.964Z,73.34
2022-11-18T01:30:36.281Z,73.13
2022-11-18T01:33:07.635Z,73.35
2022-11-18T01:35:39.885Z,73.60
2022-11-18T01:38:11.251Z,73.36
2022-11-18T01:40:41.191Z,73.64
2022-11-18T01:43:20.422Z,73.39
2022-11-18T01:45:53.572Z,73.38
2022-11-18T01:48:29.112Z,73.38
2022-11-18T01:51:05.698Z,73.26
2022-11-18T01:53:40.990Z,73.25
2022-11-18T01:56:17.005Z,73.50
2022-11-18T01:58:59.750Z,73.44
2022-11-18T02:01:30.065Z,73.66
2022-11-18T02:04:00.838Z,73.36
2022-11-18T02:06:31.148Z,73.46
2022-11-18T02:09:01.721Z,73.53
2022-11-18T02:11:51.722Z,73.36
2022-11-18T02:14:25.291Z,73.26
2022-11-18T02:17:07.756Z,73.23
2022-11-18T02:19:49.827Z,73.39
2022-11-18T02:22:26.506Z,73.21
2022-11-18T02:25:08.886Z,73.40
2022-11-18T02:27:47.461Z,73.53
2022-11-18T02:30:21.040Z,73.48
2022-11-18T02:33:00.206Z,73.45
2022-11-18T02:35:38.362Z,73.35
2022-11-18T02:38:25.979Z,73.21
2022-11-18T02:41:01.986Z,73.11
2022-11-18T02:43:38.327Z,73.47
2022-11-18T02:46:14.211Z,73.33
2022-11-18T02:48:49.539Z,73.54
2022-11-18T02:51:25.970Z,73.22
2022-11-18T02:53:59.678Z,73.25
2022-11-18T02:56:30.758Z,73.31
2022-11-18T02:59:00.996Z,73.40
2022-11-18T03:01:37.170Z,73.29
2022-11-18T03:04:28.160Z,73.62
2022-11-18T03:07:25.464Z,73.18
2022-11-18T03:09:57.065Z,73.42
2022-11-18T03:12:40.598Z,73.54
2022-11-18T03:15:41.168Z,73.13
2022-11-18T03:18:57.769Z,73.15
2022-11-18T03:21:48.060Z,72.89
2022-11-18T03:24:28.947Z,72.81
2022-11-18T03:27:08.140Z,72.93
2022-11-18T03:29:45.542Z,72.67
2022-11-18T03:32:25.837Z,72.82
2022-11-18T03:35:02.960Z,72.92
2022-11-18T03:37:37.354Z,72.34
2022-11-18T03:40:15.007Z,72.29
2022-11-18T03:42:51.861Z,72.40
2022-11-18T03:45:33.743Z,71.96
2022-11-18T03:48:17.760Z,72.43
2022-11-18T03:50:56.434Z,72.44
2022-11-18T03:53:30.533Z,72.29
2022-11-18T03:56:10.492Z,72.68
2022-11-18T03:59:00.328Z,72.28
2022-11-18T04:02:09.129Z,72.40
2022-11-18T04:04:40.532Z,72.40
2022-11-18T04:07:28.834Z,72.63
2022-11-18T04:10:22.589Z,72.53
2022-11-18T04:13:06.472Z,72.37
2022-11-18T04:15:40.858Z,72.30
2022-11-18T04:18:12.088Z,71.48
2022-11-18T04:20:42.600Z,71.54
2022-11-18T04:23:12.872Z,71.32
2022-11-18T04:25:42.985Z,71.41
2022-11-18T04:28:13.688Z,71.81
2022-11-18T04:30:43.996Z,71.48
2022-11-18T04:33:14.329Z,71.98
2022-11-18T04:35:44.541Z,71.24
2022-11-18T04:38:19.109Z,71.64
2022-11-18T04:40:51.960Z,72.26
2022-11-18T04:43:22.223Z,72.07
2022-11-18T04:45:52.510Z,71.53
2022-11-18T04:48:22.766Z,71.50
2022-11-18T04:50:53.106Z,71.29
2022-11-18T04:53:23.347Z,71.03
2022-11-18T04:55:53.588Z,71.01
2022-11-18T04:58:23.865Z,70.70
2022-11-18T05:00:54.192Z,71.00
2022-11-18T05:03:25.453Z,71.20
2022-11-18T05:05:55.968Z,71.12
2022-11-18T05:08:27.288Z,71.58
2022-11-18T05:11:17.332Z,70.62
2022-11-18T05:13:47.513Z,70.70
2022-11-18T05:16:17.552Z,71.06
2022-11-18T05:18:47.748Z,70.29
2022-11-18T05:21:18.008Z,70.78
2022-11-18T05:23:48.211Z,71.24
2022-11-18T05:26:18.800Z,71.27
2022-11-18T05:28:49.079Z,70.22
2022-11-18T05:31:19.920Z,69.98
2022-11-18T05:33:50.491Z,70.37
2022-11-18T05:36:22.356Z,69.96
2022-11-18T05:38:53.161Z,71.02
2022-11-18T05:41:41.429Z,70.49
2022-11-18T05:44:11.782Z,69.70
2022-11-18T05:46:42.036Z,69.18
2022-11-18T05:49:12.254Z,69.77
2022-11-18T05:51:42.492Z,69.77
2022-11-18T05:54:14.270Z,70.08
2022-11-18T05:56:47.353Z,69.74
2022-11-18T05:59:18.238Z,70.28
2022-11-18T06:02:26.632Z,70.13
2022-11-18T06:05:02.252Z,70.42
2022-11-18T06:07:45.902Z,70.20
2022-11-18T06:10:23.494Z,70.07
2022-11-18T06:12:58.425Z,70.37
2022-11-18T06:15:37.071Z,70.23
2022-11-18T06:18:21.349Z,69.44
2022-11-18T06:20:53.599Z,70.48
2022-11-18T06:23:24.275Z,69.28
2022-11-18T06:25:55.631Z,69.63
2022-11-18T06:28:26.358Z,69.22
2022-11-18T06:30:56.824Z,69.95
2022-11-18T06:33:27.261Z,69.23
2022-11-18T06:35:57.608Z,68.83
2022-11-18T06:38:28.061Z,69.65
2022-11-18T06:41:07.239Z,68.84
2022-11-18T06:43:46.357Z,68.81
2022-11-18T06:46:37.564Z,69.41
2022-11-18T06:49:08.054Z,69.82
2022-11-18T06:51:38.390Z,69.51
2022-11-18T06:54:10.888Z,69.13
2022-11-18T06:56:41.968Z,69.84
2022-11-18T06:59:12.404Z,70.04
2022-11-18T07:01:44.184Z,70.01
2022-11-18T07:04:14.434Z,69.78
2022-11-18T07:06:44.971Z,69.83
2022-11-18T07:09:15.542Z,69.61
2022-11-18T07:11:46.130Z,69.26
2022-11-18T07:14:16.362Z,68.76
2022-11-18T07:16:46.618Z,68.68
2022-11-18T07:19:17.221Z,69.23
2022-11-18T07:21:47.611Z,69.07
2022-11-18T07:24:18.904Z,68.92
2022-11-18T07:26:49.446Z,68.94
2022-11-18T07:29:19.762Z,69.27
2022-11-18T07:31:49.975Z,68.73
2022-11-18T07:34:21.494Z,68.73
2022-11-18T07:36:51.778Z,68.78
2022-11-18T07:39:21.827Z,68.71
2022-11-18T07:41:52.039Z,68.93
2022-11-18T07:44:22.592Z,69.32
2022-11-18T07:46:52.837Z,69.39
2022-11-18T07:49:23.092Z,69.35
2022-11-18T07:51:53.286Z,69.60
2022-11-18T07:54:23.294Z,68.62
2022-11-18T07:56:53.333Z,69.50
2022-11-18T07:59:23.407Z,69.38
2022-11-18T08:01:53.508Z,68.99
2022-11-18T08:04:23.541Z,69.19
2022-11-18T08:06:53.721Z,69.34
2022-11-18T08:09:24.012Z,68.99
2022-11-18T08:11:54.243Z,69.33
2022-11-18T08:14:26.330Z,69.31
2022-11-18T08:16:57.003Z,69.13
2022-11-18T08:19:27.216Z,69.52
2022-11-18T08:21:59.089Z,69.49
2022-11-18T08:24:29.294Z,69.86
2022-11-18T08:26:59.796Z,69.66
2022-11-18T08:29:30.756Z,69.66
2022-11-18T08:32:01.430Z,69.57
2022-11-18T08:34:31.892Z,70.06
2022-11-18T08:37:02.407Z,69.44
2022-11-18T08:39:32.667Z,69.66
2022-11-18T08:42:02.927Z,70.01
2022-11-18T08:44:35.550Z,69.66
2022-11-18T08:47:05.834Z,69.95
2022-11-18T08:49:35.865Z,69.77
2022-11-18T08:52:06.006Z,69.54
2022-11-18T08:54:36.235Z,69.81
2022-11-18T08:57:06.781Z,69.65
2022-11-18T08:59:37.243Z,69.76
2022-11-18T09:02:07.572Z,69.76
2022-11-18T09:04:37.808Z,69.20
2022-11-18T09:07:08.043Z,68.66
2022-11-18T09:09:39.031Z,68.07
2022-11-18T09:12:09.556Z,68.13
2022-11-18T09:17:30.119Z,68.58
2022-11-18T09:20:00.348Z,69.90
2022-11-18T09:22:30.772Z,69.87
2022-11-18T09:25:00.952Z,70.40
2022-11-18T09:27:31.234Z,71.26
2022-11-18T09:30:01.465Z,71.39
2022-11-18T09:32:31.751Z,72.44
2022-11-18T09:35:02.036Z,72.95
2022-11-18T09:37:32.537Z,73.54
2022-11-18T09:40:02.732Z,73.44
2022-11-18T09:42:48.894Z,73.83
2022-11-18T09:45:37.066Z,73.46
2022-11-18T09:48:45.578Z,72.68
2022-11-18T09:51:16.475Z,72.60
2022-11-18T09:53:48.335Z,73.73
2022-11-18T09:56:19.454Z,73.77
2022-11-18T09:58:50.373Z,73.58
2022-11-18T10:01:23.583Z,73.33
2022-11-18T10:03:54.709Z,73.38
2022-11-18T10:06:31.604Z,73.37
2022-11-18T10:09:10.893Z,72.95
2022-11-18T10:11:53.423Z,73.93
2022-11-18T10:15:00.110Z,73.37
2022-11-18T10:17:48.262Z,73.38
2022-11-18T10:20:53.462Z,74.15
2022-11-18T10:23:37.779Z,73.41
2022-11-18T10:26:08.036Z,73.70
2022-11-18T10:28:38.259Z,73.60
2022-11-18T10:31:14.467Z,73.29
2022-11-18T10:33:45.928Z,72.14
2022-11-18T10:36:30.229Z,72.35
2022-11-18T10:39:19.523Z,72.37
2022-11-18T10:41:54.952Z,72.61
2022-11-18T10:44:44.936Z,72.18
2022-11-18T10:47:35.342Z,72.42
2022-11-18T10:50:26.357Z,72.24
2022-11-18T10:52:56.784Z,72.20
2022-11-18T10:55:31.343Z,71.82
2022-11-18T10:58:10.389Z,71.31
2022-11-18T11:00:49.564Z,71.27
2022-11-18T11:03:29.825Z,71.67
2022-11-18T11:06:21.503Z,71.30
2022-11-18T11:08:54.069Z,70.75
2022-11-18T11:11:30.937Z,70.76
2022-11-18T11:14:16.826Z,70.78
2022-11-18T11:17:15.087Z,71.39
2022-11-18T11:20:22.730Z,72.23
2022-11-18T11:22:53.442Z,72.42
2022-11-18T11:29:00.423Z,72.63
2022-11-18T11:31:42.840Z,72.92
2022-11-18T11:34:13.831Z,72.90
2022-11-18T11:36:53.594Z,72.95
2022-11-18T11:39:26.768Z,72.90
2022-11-18T11:42:35.569Z,73.33
2022-11-18T11:45:21.101Z,73.43
2022-11-18T11:48:06.195Z,73.17
2022-11-18T11:51:05.963Z,73.56
2022-11-18T11:53:53.786Z,73.37
2022-11-18T11:56:32.981Z,72.96
2022-11-18T11:59:28.561Z,73.13
2022-11-18T12:02:02.495Z,73.24
2022-11-18T12:04:41.556Z,73.47
2022-11-18T12:07:29.104Z,73.44
2022-11-18T12:10:20.081Z,73.59
2022-11-18T12:13:15.728Z,73.25
2022-11-18T12:16:07.462Z,73.61
2022-11-18T12:18:55.529Z,73.80
2022-11-18T12:21:50.361Z,73.92
2022-11-18T12:24:20.734Z,73.75
2022-11-18T12:26:53.151Z,73.48
2022-11-18T12:29:27.232Z,73.52
2022-11-18T12:32:04.152Z,73.75
2022-11-18T12:34:46.487Z,73.90
2022-11-18T12:37:28.804Z,74.17
2022-11-18T12:39:59.911Z,73.97
2022-11-18T12:43:06.193Z,74.31
2022-11-18T12:45:46.625Z,74.24
2022-11-18T12:48:37.038Z,74.33
2022-11-18T12:51:21.095Z,74.17
2022-11-18T12:53:53.224Z,74.32
2022-11-18T12:56:30.640Z,74.09
2022-11-18T12:59:02.764Z,74.06
2022-11-18T13:01:37.559Z,73.82
2022-11-18T13:04:24.793Z,73.83
2022-11-18T13:06:57.308Z,74.24
2022-11-18T13:09:29.548Z,73.93
2022-11-18T13:12:07.573Z,73.74
2022-11-18T13:15:02.207Z,73.97
2022-11-18T13:17:56.572Z,74.29
2022-11-18T13:20:35.368Z,74.20
2022-11-18T13:23:44.458Z,74.44
2022-11-18T13:26:30.078Z,74.08
2022-11-18T13:29:24.437Z,73.94
2022-11-18T13:32:07.156Z,73.96
2022-11-18T13:34:52.162Z,74.08
2022-11-18T13:37:33.419Z,74.05
2022-11-18T13:40:03.739Z,74.32
2022-11-18T13:42:34.859Z,74.54
2022-11-18T13:45:06.327Z,74.69
2022-11-18T13:47:54.023Z,73.89
2022-11-18T13:50:24.865Z,73.97
2022-11-18T13:53:18.208Z,74.28
2022-11-18T13:56:00.049Z,75.21
2022-11-18T13:59:02.735Z,75.67
2022-11-18T14:01:37.539Z,75.05
2022-11-18T14:04:10.497Z,74.68
2022-11-18T14:06:44.199Z,75.08
2022-11-18T14:09:14.432Z,74.75
2022-11-18T14:11:47.305Z,75.44
2022-11-18T14:14:32.395Z,75.54
2022-11-18T14:17:23.025Z,75.17
2022-11-18T14:19:55.995Z,74.68
2022-11-18T14:22:30.246Z,74.74
2022-11-18T14:25:22.512Z,74.77
2022-11-18T14:27:58.994Z,74.12
2022-11-18T14:31:10.561Z,74.43
2022-11-18T14:33:41.425Z,74.57
2022-11-18T14:36:14.454Z,74.71
2022-11-18T14:41:50.187Z,74.55
2022-11-18T14:44:22.668Z,74.80
2022-11-18T14:46:58.021Z,74.79
2022-11-18T14:49:30.378Z,74.71
2022-11-18T14:52:01.652Z,73.92
2022-11-18T14:54:32.484Z,74.11
2022-11-18T14:57:07.981Z,74.28
2022-11-18T14:59:38.363Z,73.92
2022-11-18T15:02:15.760Z,74.54
2022-11-18T15:04:46.156Z,74.13
2022-11-18T15:07:23.139Z,74.64
2022-11-18T15:09:54.350Z,74.39
2022-11-18T15:12:24.752Z,74.30
2022-11-18T15:14:54.793Z,74.14
2022-11-18T15:17:25.206Z,74.61
2022-11-18T15:19:55.396Z,75.06
2022-11-18T15:22:25.737Z,75.28
2022-11-18T15:24:55.794Z,73.95
2022-11-18T15:27:26.101Z,74.25
2022-11-18T15:30:01.458Z,74.07
2022-11-18T15:33:20.744Z,73.77
2022-11-18T15:35:52.008Z,73.71
2022-11-18T15:38:21.864Z,73.97
2022-11-18T15:40:52.009Z,73.87
2022-11-18T15:43:22.356Z,73.78
2022-11-18T15:46:00.414Z,73.71
2022-11-18T15:48:30.700Z,73.96
2022-11-18T15:51:00.761Z,74.20
2022-11-18T15:53:31.065Z,73.79
2022-11-18T15:56:26.147Z,74.41
2022-11-18T15:58:59.391Z,74.10
2022-11-18T16:01:33.158Z,74.20
2022-11-18T16:04:03.917Z,74.66
2022-11-18T16:06:34.831Z,74.28
2022-11-18T16:09:06.658Z,74.49
2022-11-18T16:11:55.197Z,74.31
2022-11-18T16:14:26.088Z,74.10
2022-11-18T16:16:58.665Z,73.76
2022-11-18T16:19:30.923Z,74.51
2022-11-18T16:22:01.293Z,74.27
2022-11-18T16:24:32.365Z,74.22
2022-11-18T16:27:04.679Z,74.45
2022-11-18T16:29:35.296Z,74.63
2022-11-18T16:32:15.316Z,74.80
2022-11-18T16:34:45.610Z,74.46
2022-11-18T16:37:15.972Z,74.57
2022-11-18T16:39:46.691Z,74.82
2022-11-18T16:42:17.354Z,75.05
2022-11-18T16:44:47.678Z,75.29
2022-11-18T16:47:18.041Z,75.41
2022-11-18T16:49:48.470Z,75.44
2022-11-18T16:52:19.193Z,74.84
2022-11-18T16:54:49.484Z,75.26
2022-11-18T16:57:19.684Z,75.10
2022-11-18T16:59:49.936Z,75.36
2022-11-18T17:02:22.575Z,75.23
2022-11-18T17:04:52.945Z,75.05
2022-11-18T17:07:24.121Z,75.17
2022-11-18T17:09:54.438Z,75.06
2022-11-18T17:12:24.692Z,75.14
2022-11-18T17:14:54.938Z,75.24
2022-11-18T17:17:25.212Z,75.31
2022-11-18T17:19:55.454Z,75.59
2022-11-18T17:22:25.752Z,75.29
2022-11-18T17:24:57.100Z,75.13
2022-11-18T17:27:29.001Z,75.47
2022-11-18T17:29:59.206Z,75.39
2022-11-18T17:32:29.502Z,75.78
2022-11-18T17:34:59.849Z,75.77
2022-11-18T17:37:32.249Z,75.40
2022-11-18T17:40:02.556Z,75.56
2022-11-18T17:42:32.821Z,75.29
2022-11-18T17:45:02.845Z,75.55
2022-11-18T17:47:32.946Z,76.05
2022-11-18T17:50:03.267Z,75.91
2022-11-18T17:52:34.471Z,75.75
2022-11-18T17:55:05.498Z,76.12
2022-11-18T17:57:35.968Z,75.91
2022-11-18T18:00:06.867Z,75.82
2022-11-18T18:02:37.296Z,75.32
2022-11-18T18:05:07.898Z,75.61
2022-11-18T18:07:38.381Z,75.27
2022-11-18T18:10:09.048Z,75.50
2022-11-18T18:12:57.987Z,75.31
2022-11-18T18:15:29.369Z,75.31
2022-11-18T18:17:59.694Z,75.42
2022-11-18T18:20:30.173Z,75.35
2022-11-18T18:23:00.853Z,75.49
2022-11-18T18:25:31.090Z,75.20
2022-11-18T18:28:01.517Z,75.22
2022-11-18T18:30:31.796Z,75.66
2022-11-18T18:33:02.052Z,75.62
2022-11-18T18:35:32.335Z,75.67
2022-11-18T18:38:04.118Z,75.79
2022-11-18T18:40:35.138Z,75.69
2022-11-18T18:43:05.502Z,75.57
2022-11-18T18:45:54.095Z,75.54
2022-11-18T18:48:24.550Z,75.72
2022-11-18T18:50:55.068Z,75.67
2022-11-18T18:53:25.494Z,75.91
2022-11-18T18:55:59.154Z,75.93
2022-11-18T18:58:30.215Z,75.65
2022-11-18T19:01:11.266Z,75.89
2022-11-18T19:03:42.177Z,76.01
2022-11-18T19:09:11.731Z,75.99
2022-11-18T19:12:00.412Z,75.85
2022-11-18T19:14:31.122Z,75.53
2022-11-18T19:17:04.997Z,76.28
2022-11-18T19:19:57.819Z,75.87
2022-11-18T19:22:30.646Z,75.95
2022-11-18T19:25:01.881Z,76.23
2022-11-18T19:27:33.562Z,76.22
2022-11-18T19:30:03.849Z,76.03
2022-11-18T19:32:37.446Z,75.74
2022-11-18T19:35:09.499Z,75.81
2022-11-18T19:37:40.148Z,76.07
2022-11-18T19:40:11.958Z,76.11
2022-11-18T19:42:44.231Z,76.14
2022-11-18T19:45:14.759Z,75.95
2022-11-18T19:47:45.090Z,75.65
2022-11-18T19:50:15.627Z,75.78
2022-11-18T19:52:45.896Z,76.04
2022-11-18T19:55:16.203Z,75.90
2022-11-18T19:57:46.858Z,76.35
2022-11-18T20:00:18.052Z,76.29
2022-11-18T20:02:48.355Z,76.24
2022-11-18T20:05:37.385Z,76.55
2022-11-18T20:08:07.770Z,76.04
2022-11-18T20:10:38.063Z,76.25
2022-11-18T20:13:08.378Z,75.99
2022-11-18T20:15:38.762Z,75.87
2022-11-18T20:18:09.345Z,76.21
2022-11-18T20:20:40.913Z,75.88
2022-11-18T20:23:11.496Z,75.80
2022-11-18T20:25:41.969Z,75.96
2022-11-18T20:28:13.349Z,76.21
2022-11-18T20:30:43.372Z,75.91
2022-11-18T20:33:13.530Z,76.24
2022-11-18T20:35:44.169Z,75.91
2022-11-18T20:38:14.455Z,76.17
2022-11-18T20:40:44.997Z,75.97
2022-11-18T20:43:15.356Z,75.88
2022-11-18T20:45:48.622Z,76.46
2022-11-18T20:48:18.843Z,75.93
2022-11-18T20:50:49.180Z,76.03
2022-11-18T20:53:21.294Z,76.26
2022-11-18T20:55:55.160Z,75.98
2022-11-18T20:58:26.515Z,76.08
2022-11-18T21:01:01.488Z,76.17
2022-11-18T21:03:32.084Z,76.18
2022-11-18T21:06:13.842Z,76.14
2022-11-18T21:08:45.164Z,75.80
2022-11-18T21:11:16.478Z,75.85
2022-11-18T21:14:05.287Z,75.80
2022-11-18T21:16:35.659Z,75.87
2022-11-18T21:19:06.978Z,76.09
2022-11-18T21:21:46.694Z,75.84
2022-11-18T21:24:30.115Z,75.92
2022-11-18T21:27:05.486Z,75.94
2022-11-18T21:29:36.435Z,75.98
2022-11-18T21:32:07.077Z,75.98
2022-11-18T21:34:37.400Z,76.07
2022-11-18T21:37:07.617Z,75.74
2022-11-18T21:39:38.144Z,75.80
2022-11-18T21:42:08.570Z,75.87
2022-11-18T21:44:38.979Z,75.83
2022-11-18T21:47:09.780Z,75.57
2022-11-18T21:49:39.999Z,75.73
2022-11-18T21:52:10.693Z,75.45
2022-11-18T21:54:40.990Z,75.33
2022-11-18T21:57:11.421Z,75.19
2022-11-18T21:59:41.638Z,75.58
2022-11-18T22:02:16.246Z,75.49
2022-11-18T22:04:55.893Z,75.27
2022-11-18T22:07:27.278Z,75.36
2022-11-18T22:09:57.543Z,75.32
2022-11-18T22:12:28.295Z,75.18
2022-11-18T22:14:58.877Z,75.28
2022-11-18T22:17:29.537Z,75.02
2022-11-18T22:19:59.855Z,74.90
2022-11-18T22:22:30.211Z,75.02
2022-11-18T22:25:00.535Z,75.12
2022-11-18T22:27:30.663Z,74.99
2022-11-18T22:30:00.913Z,75.14
2022-11-18T22:32:31.828Z,75.25
2022-11-18T22:35:02.232Z,75.07
2022-11-18T22:37:32.610Z,74.98
2022-11-18T22:40:02.692Z,75.08
2022-11-18T22:42:52.025Z,74.90
2022-11-18T22:45:22.515Z,74.83
2022-11-18T22:47:56.264Z,75.23
2022-11-18T22:50:26.564Z,74.87
2022-11-18T22:52:56.923Z,75.03
2022-11-18T22:55:27.200Z,74.86
2022-11-18T22:57:57.539Z,75.13
2022-11-18T23:00:27.772Z,75.00
2022-11-18T23:02:58.090Z,75.27
2022-11-18T23:05:28.440Z,75.03
2022-11-18T23:07:58.733Z,74.88
2022-11-18T23:10:28.868Z,75.22
2022-11-18T23:13:17.669Z,74.93
2022-11-18T23:15:48.529Z,74.89
2022-11-18T23:18:18.974Z,74.88
2022-11-18T23:20:49.234Z,75.13
2022-11-18T23:23:20.709Z,75.43
2022-11-18T23:25:51.027Z,75.24
2022-11-18T23:28:21.162Z,75.05
2022-11-18T23:30:51.501Z,75.22
2022-11-18T23:33:21.808Z,75.09
2022-11-18T23:35:55.744Z,75.31
2022-11-18T23:38:26.353Z,75.34
2022-11-18T23:41:01.268Z,75.55
2022-11-18T23:43:32.820Z,75.45
2022-11-18T23:46:03.854Z,75.45
2022-11-18T23:48:42.804Z,75.78
2022-11-18T23:51:15.653Z,75.83
2022-11-18T23:53:47.394Z,75.74
2022-11-18T23:56:20.205Z,75.73
2022-11-18T23:58:53.654Z,75.86
